Create Custom Reports and Graphics: Custom Report

Kelseyville-South

Current Conditions

5/17/22 7:45 PM (-07:00)
Updated Every 15 Minutes
Temp 72.5 °F   6.9
RH 35 %   15
Dew Pt 43.1 °F   3.0
Wind Spd 3.3 mph   1.5
Wind Dir WSW | 245 °
Wind Gust 5.4 mph   3.4
Solar Rad 99 W/m2   15
Leaf Wet 0.0 mins
BatVolt 13.3 V

Today & Yesterday

Kelseyville-South

5/17/22 7:45 PM (-07:00)
Updated Every 15 Minutes
Daily Max Temp 83.0 °F   7.0
Time of Max Temp 1521
Daily Min Temp 39.0 °F   1.0
Time of Min Temp 0535
Daily Max Wind 19.5 mph   2.3
Time of Max Wind 1557
Max Wind Dir W | 262 °
Daily Rain 0.00 In
Daily ETo 0.251 in   0.030
Daily Leaf Wet Hrs 2.2 hrs
Yest MaxT 76.0 °F
Yest MinT 40.1 °F
Yest MaxGst 17.2 mph
Yest Rain 0.00 In
Yest ETo 0.22 In
Leaf Wet Hrs Yest 0.7 Hours

Last 48 Hours

Kelseyville-South

Hourly Data | America/Los_Angeles
as of 5/17/22 7:58 PM PDT
Date & Time Temp (°F) RH (%) Dew Pt (°F) Wet Bulb (°F) Wind Dir (°) Wind Spd (mph) Wind Gust (mph) Wind Gst Dir (°) Solar Rad (W/m2) Leaf Wet (mins) Latest Rain (In) Daily Rain (In) Daily Min Temp (°F) Daily Max Temp (°F) Daily ETo (in) Daily Leaf Wet Hrs (hrs)
5/17/22 - 1900 77.8 25 39.2 55.3 W | 281 7.9 14.5 NW | 306 294 0.0 0.00 0.00 39.0 83.0 0.251 2.2
5/17/22 - 1800 79.7 22 37.6 55.2 WNW | 287 8.2 15.2 W | 281 512 0.0 0.00 0.00 39.0 83.0 0.238 2.2
5/17/22 - 1700 80.0 23 39.0 55.8 WNW | 298 9.9 19.2 WNW | 296 715 0.0 0.00 0.00 39.0 83.0 0.219 2.2
5/17/22 - 1600 81.9 15 28.6 53.1 WNW | 295 10.0 19.5 W | 262 896 0.0 0.00 0.00 39.0 83.0 0.195 2.2
5/17/22 - 1500 81.2 17 31.8 53.8 W | 264 8.0 16.8 WSW | 257 1,006 0.0 0.00 0.00 39.0 82.3 0.164 2.2
5/17/22 - 1400 78.7 28 42.4 56.8 SW | 219 4.6 12.1 W | 268 1,040 0.0 0.00 0.00 39.0 81.3 0.132 2.2
5/17/22 - 1300 75.6 31 43.1 56.3 N | 7 4.1 10.5 NNE | 17 1,041 0.0 0.00 0.00 39.0 77.6 0.102 2.2
5/17/22 - 1200 71.0 36 42.6 54.8 NNE | 20 4.2 9.1 N | 10 970 0.0 0.00 0.00 39.0 73.6 0.073 2.2
5/17/22 - 1100 66.8 49 46.8 55.5 NNE | 31 3.1 8.4 NE | 50 836 0.0 0.00 0.00 39.0 69.4 0.047 2.2
5/17/22 - 1000 61.4 61 48.0 54.3 NE | 54 1.6 5.1 NE | 35 660 0.0 0.00 0.00 39.0 64.1 0.027 2.2
5/17/22 - 0900 57.1 71 47.8 52.6 ENE | 64 1.1 4.1 E | 97 455 0.0 0.00 0.00 39.0 59.1 0.012 2.2
5/17/22 - 0800 50.7 83 45.7 48.6 ENE | 69 0.1 2.4 NE | 48 245 0.0 0.00 0.00 39.0 54.5 0.003 2.2
5/17/22 - 0700 41.7 97 40.8 41.5 S | 186 0.0 1.7 S | 186 62 51.3 0.00 0.00 39.0 48.1 0.000 2.2
5/17/22 - 0600 39.8 96 38.9 39.6 N | 0 0.0 0.0 SE | 133 1 60.0 0.00 0.00 39.0 48.1 0.000 1.3
5/17/22 - 0500 41.2 96 40.2 41.0 SE | 136 0.4 2.4 SE | 132 0 20.8 0.00 0.00 40.7 48.1 0.000 0.3
5/17/22 - 0400 41.8 94 40.3 41.4 SSE | 166 1.1 3.1 SSW | 203 0 0.0 0.00 0.00 40.8 48.1 0.000 0.0
5/17/22 - 0300 44.3 91 42.0 43.6 SE | 142 0.1 1.7 SE | 141 0 0.0 0.00 0.00 43.1 48.1 0.000 0.0
5/17/22 - 0200 46.9 88 43.4 45.6 SE | 146 1.4 4.4 SSE | 149 0 0.0 0.00 0.00 45.4 48.1 0.000 0.0
5/17/22 - 0100 49.0 85 44.7 47.3 SE | 141 3.2 5.1 S | 169 0 0.0 0.00 0.00 40.1 76.0 0.225 0.7
5/17/22 - 0000 50.2 84 45.6 48.4 SSE | 150 3.1 5.4 SE | 135 0 0.0 0.00 0.00 40.1 76.0 0.225 0.7
5/16/22 - 2300 52.3 80 46.2 49.7 SSE | 150 2.9 4.4 S | 174 0 0.0 0.00 0.00 40.1 76.0 0.225 0.7
5/16/22 - 2200 55.3 73 46.6 51.2 SSW | 197 3.6 5.8 SW | 224 0 0.0 0.00 0.00 40.1 76.0 0.225 0.7
5/16/22 - 2100 60.1 60 46.3 52.9 WSW | 246 5.2 10.1 SW | 232 4 0.0 0.00 0.00 40.1 76.0 0.225 0.7
5/16/22 - 2000 66.3 49 46.2 55.0 WSW | 248 5.5 10.1 WSW | 241 109 0.0 0.00 0.00 40.1 76.0 0.224 0.7
5/16/22 - 1900 71.6 41 46.8 56.9 WNW | 301 7.1 13.2 WNW | 301 307 0.0 0.00 0.00 40.1 76.0 0.221 0.7
5/16/22 - 1800 73.7 39 47.3 57.8 NW | 312 9.0 14.5 W | 280 517 0.0 0.00 0.00 40.1 76.0 0.210 0.7
5/16/22 - 1700 74.6 34 44.5 56.7 W | 264 9.2 15.5 W | 273 720 0.0 0.00 0.00 40.1 76.0 0.194 0.7
5/16/22 - 1600 75.2 30 41.4 55.5 W | 262 9.7 16.5 WNW | 284 812 0.0 0.00 0.00 40.1 76.0 0.172 0.7
5/16/22 - 1500 74.4 30 41.2 55.2 W | 263 9.6 16.2 WSW | 250 924 0.0 0.00 0.00 40.1 75.6 0.147 0.7
5/16/22 - 1400 72.6 30 39.8 54.0 W | 266 9.0 15.8 WNW | 288 824 0.0 0.00 0.00 40.1 74.1 0.120 0.7
5/16/22 - 1300 71.9 34 42.2 54.9 WNW | 293 6.5 17.2 WNW | 303 830 0.0 0.00 0.00 40.1 73.6 0.095 0.7
5/16/22 - 1200 69.2 46 47.7 56.8 NNW | 328 4.3 11.5 W | 268 963 0.0 0.00 0.00 40.1 71.3 0.071 0.7
5/16/22 - 1100 64.8 57 49.2 56.2 N | 6 3.4 8.4 NNE | 21 824 0.0 0.00 0.00 40.1 67.4 0.047 0.7
5/16/22 - 1000 61.1 61 47.5 53.9 NNE | 31 2.2 5.4 E | 87 666 0.0 0.00 0.00 40.1 62.8 0.028 0.7
5/16/22 - 0900 57.7 69 47.5 52.7 NE | 54 1.2 5.1 SE | 125 461 0.0 0.00 0.00 40.1 58.8 0.013 0.7
5/16/22 - 0800 51.9 84 47.1 49.9 ESE | 108 2.1 4.1 E | 91 248 0.0 0.00 0.00 40.1 55.5 0.004 0.7
5/16/22 - 0700 42.6 96 41.5 42.4 SE | 132 1.5 4.1 ESE | 122 68 35.8 0.00 0.00 40.1 48.3 0.000 0.7
5/16/22 - 0600 41.2 95 40.0 40.9 SE | 124 1.3 4.4 ESE | 112 1 6.2 0.00 0.00 40.1 48.3 0.000 0.1
5/16/22 - 0500 42.7 93 40.8 42.1 SE | 134 2.3 4.1 ESE | 122 0 0.0 0.00 0.00 41.7 48.3 0.000 0.0
5/16/22 - 0400 45.3 89 42.3 44.2 ESE | 117 3.2 5.4 SE | 125 0 0.0 0.00 0.00 43.8 48.3 0.000 0.0
5/16/22 - 0300 45.6 88 42.2 44.3 SE | 133 2.9 4.8 SE | 127 0 0.0 0.00 0.00 44.7 48.3 0.000 0.0
5/16/22 - 0200 46.6 80 40.8 44.2 SE | 133 2.9 5.4 SE | 126 0 0.0 0.00 0.00 45.2 48.3 0.000 0.0
5/16/22 - 0100 48.7 70 39.2 44.4 SSE | 164 1.6 4.4 S | 172 0 0.0 0.00 0.00 46.0 78.9 0.233 1.8
5/16/22 - 0000 50.3 63 38.2 44.8 SSW | 194 1.7 6.8 SW | 222 0 0.0 0.00 0.00 46.0 78.9 0.233 1.8
5/15/22 - 2300 53.5 55 37.6 46.0 SE | 142 1.6 4.1 E | 83 0 0.0 0.00 0.00 46.0 78.9 0.233 1.8
5/15/22 - 2200 56.1 51 38.4 47.5 ESE | 113 2.2 4.8 S | 180 0 0.0 0.00 0.00 46.0 78.9 0.233 1.8
5/15/22 - 2100 61.9 40 36.8 49.1 S | 171 2.4 7.8 W | 263 4 0.0 0.00 0.00 46.0 78.9 0.233 1.8
5/15/22 - 2000 68.7 29 35.2 51.1 W | 272 8.0 14.8 W | 266 134 0.0 0.00 0.00 46.0 78.9 0.232 1.8
5/15/22 - 1900 71.1 30 38.4 53.0 W | 266 9.3 15.2 WSW | 257 298 0.0 0.00 0.00 46.0 78.9 0.225 1.8
Max 81.9 97 49.2 57.8 - 10.0 19.5 - 1,041 60.0 0.00 0.00 46.0 83.0 0.251 2.2
Avg 60.1 59 42.2 50.3 - 4.2 8.6 - 356 3.6 0.00 - - - - -
Min 39.8 15 28.6 39.6 - 0.0 0.0 - 0 0.0 0.00 0.00 39.0 48.1 0.000 0.0
Total - - - - - - - - - - 0.00 - - - - -

Last 30 Days

Kelseyville-South

Daily Data | America/Los_Angeles
as of 5/17/22 7:58 PM PDT
Date Daily Max Temp (°F) Time of Max Temp Daily Min Temp (°F) Time of Min Temp Daily Rain (In) Monthly Rain (In) Seasonal Rainfall (In) Wind Spd (mph) Daily Max Wind (mph) Time of Max Wind Max Wind Dir (°) Daily ETo (in) 7 Day ETo (in) Daily Solar Rad (Cal/cm2) Dew Pt (°F) Max RH (%) Min RH (%) Daily Leaf Wet Hrs (hrs) Hrs 70-85F (hrs) Hrs > 95F (hrs) Powdery Mildew Stress (pts) GDDs (DL) GDDs (Mx/Mn) Seas GDDs (DL) Seas GDDs (Smpl) Hrs <= 32F (hrs) Hrs <= 28F (hrs) Chilling <=45F (hrs) Chill Hrs 32-45F (hrs) Utah Chilling (Units) Chill Portions Degree Hrs (hrs) Max 1 Min Rain (In) Max 1 Min Rain Time Max 15 Min Rain (In) Max 15 Min Precip Time Max 60 Min Rain (In) Max 60 Min Rain Time MinBV Day (V)
5/16/22 76.0 1555 40.1 0553 0.00 2.66 18.80 4.6 17.2 1239 WNW | 303 0.225 1.35 712 44.4 98 26 0.7 7.30 0.00 60 10.6 8.0 268 154 0.0 0.0 3.3 3.3 -2.5 - 64.6 - - - - - - 12.7
5/15/22 78.9 1237 46.0 0614 0.00 2.66 18.80 4.4 19.2 1304 W | 276 0.233 1.25 678 46.4 98 24 1.8 9.34 0.00 40 12.9 12.4 258 146 0.0 0.0 0.0 0.0 -6.5 - 97.7 - - - - - - 12.7
5/14/22 83.7 1631 41.7 0543 0.00 2.66 18.80 2.7 13.2 1717 W | 274 0.239 1.12 737 47.3 99 17 5.2 9.48 0.00 20 15.2 12.7 245 133 0.0 0.0 3.2 3.2 -7.0 - 132.4 - - - - - - 12.7
5/13/22 72.6 1659 38.1 0604 0.00 2.66 18.80 3.9 18.5 1319 WSW | 248 0.199 1.07 680 47.4 98 43 1.8 5.14 0.00 0 9.8 5.4 230 121 0.0 0.0 6.1 6.1 -2.0 - 43.5 - - - - - - 12.7
5/12/22 64.0 1601 34.0 0529 0.00 2.66 18.80 4.0 17.5 1435 WSW | 251 0.163 0.99 631 39.7 100 37 7.2 0.00 0.00 0 4.1 0.0 220 115 0.0 0.0 8.9 8.9 8.0 - 0.0 0.01 0856 0.03 0741 0.10 0636 12.7
5/11/22 63.1 1440 32.8 0622 0.00 2.14 18.80 4.2 25.6 1414 WNW | 291 0.182 0.96 712 37.1 100 27 9.1 0.00 0.00 0 3.7 0.0 216 115 0.0 0.0 11.6 11.6 6.5 - 0.0 0.01 1058 0.03 0459 0.10 0402 12.6
5/10/22 55.4 1433 31.7 0635 0.80 1.42 18.80 3.3 24.2 1551 NE | 55 0.113 1.04 482 34.8 100 31 11.1 0.00 0.00 0 0.6 0.0 212 115 0.4 0.0 13.7 13.3 14.5 - 0.0 0.01 0101 0.03 0101 0.10 0445 12.6
5/9/22 55.0 1400 34.6 0053 0.01 0.62 18.00 5.5 22.2 1416 WSW | 245 0.119 1.13 522 35.5 94 35 1.4 0.00 0.00 0 0.2 0.0 212 115 0.0 0.0 13.5 13.5 20.0 - 0.0 0.01 1425 0.01 1439 0.01 1524 12.7
5/8/22 51.8 1344 36.0 0631 0.09 0.61 17.99 7.3 31.3 1707 NW | 307 0.103 1.19 503 36.7 93 52 6.9 0.00 0.00 10 0.1 0.0 211 115 0.0 0.0 14.4 14.4 21.0 - 0.0 0.01 1929 0.05 1719 0.06 1804 12.7
5/7/22 65.1 1414 43.0 2325 0.00 0.52 17.90 7.9 25.6 1519 NW | 316 0.189 1.30 686 41.4 93 34 0.9 0.00 0.00 20 4.4 4.0 211 115 0.0 0.0 2.1 2.1 6.5 - 0.0 - - - - - - 12.7
5/6/22 67.5 1605 47.3 0008 0.00 0.52 17.90 5.8 25.2 1533 WSW | 250 0.125 1.29 425 50.6 95 48 0.0 0.00 0.00 30 7.5 7.4 207 111 0.0 0.0 0.0 0.0 -3.0 - 0.9 - - - - - - 12.7
5/5/22 67.4 1237 48.2 0251 0.00 0.52 17.90 5.0 19.5 1210 W | 264 0.134 1.36 385 44.5 93 28 0.0 0.00 0.00 40 8.2 7.8 199 104 0.0 0.0 0.0 0.0 -3.0 - 1.9 - - - - - - 12.7
5/4/22 84.2 1532 38.4 0615 0.00 0.52 17.90 3.8 18.8 1339 WSW | 255 0.259 1.41 725 38.4 96 13 0.0 10.08 0.00 50 15.5 11.3 191 96 0.0 0.0 5.6 5.6 -5.5 - 150.2 - - - - - - 12.7
5/3/22 78.7 1729 31.7 0632 0.52 0.52 17.90 2.2 9.5 1333 W | 262 0.204 1.34 724 37.3 99 14 6.7 6.31 0.00 30 9.7 5.2 176 85 0.1 0.0 7.5 7.4 -2.0 - 66.6 0.01 0813 0.04 0306 0.12 0339 12.6
5/2/22 62.6 1354 37.8 0032 0.00 0.00 17.38 7.9 25.6 1507 WNW | 292 0.180 1.34 656 37.7 87 33 0.0 0.00 0.00 10 4.0 0.2 166 80 0.0 0.0 7.2 7.2 9.5 - 0.0 - - - - - - 12.7
5/1/22 78.0 1637 33.2 0619 0.00 0.00 17.38 2.5 12.5 1808 WNW | 292 0.208 1.36 720 36.5 98 11 5.4 6.18 0.00 20 9.4 5.6 162 79 0.0 0.0 7.2 7.2 0.0 - 64.0 - - - - - - 12.7
4/30/22 67.3 1348 41.7 0059 0.00 1.81 17.38 5.9 21.9 1424 W | 276 0.178 1.35 655 44.9 97 42 0.0 0.00 0.00 0 6.4 4.5 153 74 0.0 0.0 6.9 6.9 5.5 - 2.1 - - - - - - 12.7
4/29/22 71.8 1529 32.9 0629 0.32 1.81 17.38 3.3 16.5 1627 W | 273 0.196 1.36 682 37.2 99 16 5.0 1.06 0.00 0 6.8 2.4 146 69 0.0 0.0 7.6 7.6 2.0 103 20.6 0.01 0759 0.03 0733 0.10 0734 12.7
4/28/22 64.2 1544 36.9 0317 0.00 1.49 17.06 6.3 19.5 1447 W | 272 0.185 1.31 704 36.4 96 30 0.0 0.00 0.00 0 3.8 0.6 139 67 0.0 0.0 9.8 9.8 11.0 103 0.0 - - - - - - 12.7
4/27/22 68.5 1538 34.6 0613 0.00 1.49 17.06 4.6 16.8 1942 W | 280 0.193 1.21 666 37.0 98 22 2.9 0.00 0.00 0 5.5 1.5 136 66 0.0 0.0 9.4 9.4 6.0 103 8.1 - - - - - - 12.7
4/26/22 69.9 1532 42.5 0059 0.00 1.49 17.06 4.5 15.8 1457 WSW | 252 0.196 1.08 690 41.6 89 29 0.0 0.00 0.00 0 6.5 6.2 130 65 0.0 0.0 1.9 1.9 2.5 102 14.1 - - - - - - 12.7
4/25/22 73.8 1524 40.6 0642 0.00 1.49 17.06 3.8 18.5 1425 NNW | 328 0.201 1.01 643 41.4 94 23 0.0 4.76 0.00 10 8.8 7.2 124 59 0.0 0.0 6.5 6.5 0.0 102 43.2 - - - - - - 12.7
4/24/22 75.8 1655 36.0 0627 0.00 1.49 17.06 2.8 14.2 1601 NNW | 340 0.205 0.89 671 39.6 99 16 5.3 6.78 0.00 20 9.6 5.9 115 51 0.0 0.0 7.0 7.0 1.5 102 61.7 - - - - - - 12.7
4/23/22 71.3 1634 34.4 0601 0.01 1.49 17.06 2.2 17.8 1545 SSE | 167 0.185 0.87 670 39.4 100 24 7.9 0.78 0.00 0 6.8 2.8 105 46 0.0 0.0 7.7 7.7 2.5 102 19.5 0.01 0530 0.01 0544 0.01 0629 12.7
4/22/22 61.8 1555 36.0 0632 0.02 1.48 17.05 2.8 15.8 1349 WNW | 284 0.144 0.82 596 41.5 100 40 9.7 0.00 0.00 0 2.7 0.0 98 43 0.0 0.0 10.4 10.4 13.5 101 0.0 0.01 1845 0.01 1859 0.01 1944 12.7
4/21/22 54.4 1147 40.5 0624 0.28 1.46 17.03 4.9 27.9 0117 SSW | 212 0.090 0.78 417 42.5 98 55 11.7 0.00 0.00 0 0.5 0.0 96 43 0.0 0.0 10.4 10.4 18.5 101 0.0 0.01 0003 0.08 0123 0.20 0133 12.7
4/20/22 54.7 1417 34.9 0411 0.19 1.18 16.75 6.6 22.2 1615 SSE | 167 0.061 0.73 274 44.6 100 72 15.1 0.00 0.00 0 1.0 0.0 95 43 0.0 0.0 7.0 7.0 15.0 100 0.0 0.01 0101 0.06 0101 0.10 0101 12.7
4/19/22 59.1 1520 37.9 0037 0.00 0.99 16.56 5.2 17.2 1457 W | 276 0.120 0.75 504 42.0 98 47 1.4 0.00 0.00 0 1.9 0.0 94 43 0.0 0.0 8.8 8.8 14.5 99 0.0 - - - - - - 12.7
4/18/22 59.4 1232 32.6 0623 0.09 0.99 16.56 5.3 22.5 1422 SW | 214 0.083 0.75 337 43.2 98 53 10.5 0.00 0.00 0 1.8 0.0 92 43 0.0 0.0 7.7 7.7 9.0 99 0.0 0.01 2330 0.03 2117 0.06 2202 12.7
4/17/22 65.8 1351 30.6 0638 0.00 0.90 16.47 3.5 16.2 1452 SW | 236 0.187 0.79 686 32.2 100 9 8.2 0.00 0.00 0 4.7 0.0 90 43 1.1 0.0 10.5 9.4 4.5 98 0.0 - - - - - - 12.7
Max 84.2 - 48.2 - 0.80 2.66 18.80 7.9 31.3 - - 0.259 - 737 50.6 100 72 15.1 10.08 0.00 - 15.5 12.7 - - 1.1 0.0 14.4 14.4 21.0 103 150.2 0.01 - 0.08 - 0.20 - 12.7
Avg - - - - - 1.34 - 4.6 - - - - - - 40.6 - - - 2.24 0.00 - 6.1 3.7 - - 0.1 0.0 7.2 7.1 5.4 101 - - - - - - - -
Min 51.8 - 30.6 - 0.00 0.00 16.47 2.2 9.5 - - 0.061 - 274 32.2 87 9 0.0 0.00 0.00 - 0.1 0.0 - - 0.0 0.0 0.0 0.0 -7.0 98 0.0 0.01 - 0.01 - 0.01 - 12.6
Total - - - - - - - - - - - - - - - - - - 67.21 0.00 - 182.8 111.2 - - 1.6 0.0 215.9 214.3 160.5 - - - - - - - - -